Weather observations for the past three days for
Dalton, Dalton Municipal Airport
| Date | Time (edt) | Wind (kph) | Vis. (km) | Weather | Sky Cond. | Temperature (ºC) | Relative Humidity | Wind Chill (°C) | Heat Index (°C) | Pressure | Precipitation (cm) | ||||||
|---|---|---|---|---|---|---|---|---|---|---|---|---|---|---|---|---|---|
| Air | Dwpt | 6 hour | altimeter (cm) | sea level (mb) | 1 hr | 3 hr | 6 hr | ||||||||||
| Max. | Min. | ||||||||||||||||
| 09 | 15:15 | S 7 | 16.09 | Partly Cloudy | FEW290 SCT370 | 21.1 | 16.3 | 74% | 75.92 | 0.0 | |||||||
| 09 | 14:55 | S 9 | 16.09 | Partly Cloudy | FEW280 SCT320 SCT340 SCT370 | 21 | 16.4 | 75% | 75.92 | 0.0 | |||||||
| 09 | 14:35 | S 9 | 16.09 | Mostly Cloudy | FEW029 SCT320 BKN340 BKN370 | 20.9 | 16.1 | 74% | 75.95 | 0.0 | |||||||
| 09 | 14:15 | SE 13 | 16.09 | Mostly Cloudy | SCT029 BKN340 BKN360 | 21.2 | 16 | 72% | 75.95 | 0.0 | |||||||
| 09 | 13:55 | S 7 | 16.09 | Mostly Cloudy | SCT029 BKN240 | 21.1 | 15.9 | 72% | 75.95 | 0.0 | |||||||
| 09 | 13:35 | SE 9 | 16.09 | A Few Clouds | FEW300 | 21.2 | 16 | 72% | 75.92 | 0.0 | |||||||
| 09 | 13:15 | Vrbl 7 | 16.09 | A Few Clouds | FEW025 | 20.8 | 15.8 | 73% | 75.95 | 0.0 | |||||||
| 09 | 12:55 | SE 11 | 16.09 | Partly Cloudy | FEW025 SCT310 SCT350 | 20.5 | 15.5 | 73% | 75.97 | 0.0 | |||||||
| 09 | 12:35 | Vrbl 9 | 16.09 | A Few Clouds | FEW019 | 20.3 | 16.1 | 77% | 76 | 0.0 | |||||||
| 09 | 12:15 | Calm | 16.09 | Mostly Cloudy | BKN018 | 19.5 | 15.6 | 78% | 76 | 0.0 | |||||||
| 09 | 11:55 | Calm | 16.09 | Overcast | BKN016 OVC021 | 18.6 | 15.6 | 83% | 76.02 | 0.0 | |||||||
| 09 | 11:35 | Calm | 16.09 | Overcast | BKN015 OVC022 | 18.1 | 15.7 | 86% | 76.02 | 0.0 | |||||||
| 09 | 11:15 | SE 7 | 16.09 | Overcast | BKN015 OVC022 | 17.7 | 15.7 | 88% | 76.02 | 0.0 | |||||||
| 09 | 10:55 | S 7 | 16.09 | Overcast | BKN014 OVC022 | 17.6 | 15.7 | 89% | 76.05 | 0.0 | |||||||
| 09 | 10:35 | Vrbl 7 | 14.48 | Mostly Cloudy | SCT016 BKN024 BKN280 | 17.4 | 15.6 | 89% | 76.02 | 0.0 | |||||||
| 09 | 10:15 | Calm | 11.27 | Partly Cloudy | FEW025 SCT270 SCT300 | 17.2 | 15.7 | 91% | 76 | 0.0 | |||||||
| 09 | 09:55 | SE 6 | 11.27 | Overcast | OVC023 | 16.3 | 15.2 | 93% | 75.95 | 0.0 | |||||||
| 09 | 09:35 | Calm | 8.05 | Fog/Mist | BKN016 OVC022 | 15.7 | 15.1 | 96% | 75.97 | 0.0 | |||||||
| 09 | 09:15 | Calm | 6.44 | Fog/Mist | OVC017 | 15.4 | 15 | 97% | 75.97 | 0.0 | |||||||
| 09 | 08:55 | Calm | 4.02 | Fog/Mist | OVC017 | 15.1 | 14.8 | 98% | 75.97 | 0.0 | |||||||
| 09 | 08:35 | Calm | 4.83 | Fog/Mist | OVC020 | 15.2 | 14.5 | 96% | 75.97 | 0.0 | 0.03 | ||||||
| 09 | 08:15 | Calm | 4.02 | Fog/Mist | BKN019 OVC026 | 14.9 | 14.4 | 97% | 75.95 | 0.0 | 0.03 | ||||||
| 09 | 07:55 | Calm | 4.83 | Fog/Mist | SCT019 OVC028 | 14.7 | 14.1 | 96% | 75.95 | 0.0 | |||||||
| 09 | 07:35 | Calm | 4.83 | Fog/Mist | SCT019 OVC028 | 14.4 | 14.1 | 98% | 75.95 | 0.0 | |||||||
| 09 | 07:15 | Calm | 6.44 | Fog/Mist | OVC020 | 14.3 | 14 | 98% | 75.95 | 0.0 | |||||||
| 09 | 06:55 | Calm | 3.22 | Fog/Mist | OVC021 | 14.1 | 13.9 | 99% | 75.95 | 0.0 | |||||||
| 09 | 06:35 | Calm | 9.66 | Fog/Mist | OVC024 | 13.9 | 13.9 | 100% | 75.92 | 0.0 | |||||||
| 09 | 06:15 | Calm | 8.05 | Fog/Mist | OVC025 | 13.7 | 13.7 | 100% | 75.95 | 0.0 | |||||||
| 09 | 05:55 | Calm | 6.44 | Fog/Mist | OVC027 | 13.6 | 13.6 | 100% | 75.95 | 0.0 | |||||||
| 09 | 05:35 | Calm | 4.83 | Fog/Mist | SCT023 OVC029 | 13.4 | 13.4 | 100% | 75.95 | 0.0 | |||||||
| 09 | 05:15 | Calm | 4.83 | Fog/Mist | BKN023 OVC030 | 13.5 | 13.4 | 99% | 75.95 | 0.0 | |||||||
| 09 | 04:55 | Calm | 4.02 | Fog/Mist | OVC024 | 13.4 | 13.4 | 100% | 75.95 | 0.0 | |||||||
| 09 | 04:35 | W 6 | 4.83 | Fog/Mist | OVC025 | 13.1 | 13.1 | 100% | 75.95 | 0.0 | |||||||
| 09 | 04:15 | Calm | 4.83 | Fog/Mist | OVC028 | 12.8 | 12.8 | 100% | 75.95 | 0.0 | |||||||
| 09 | 03:55 | Calm | 8.05 | Fog/Mist | OVC028 | 12.6 | 12.6 | 100% | 75.95 | 0.0 | |||||||
| 09 | 03:35 | Calm | 4.83 | Fog/Mist | OVC027 | 12.6 | 12.6 | 100% | 75.95 | 0.0 | |||||||
| 09 | 03:15 | SW 6 | 4.83 | Fog/Mist | BKN026 | 12.3 | 12.3 | 100% | 75.95 | 0.0 | |||||||
| 09 | 02:55 | S 6 | 6.44 | Fog/Mist | BKN026 BKN065 | 12.4 | 12.4 | 100% | 75.95 | 0.0 | |||||||
| 09 | 02:35 | Calm | 4.02 | Fog/Mist | OVC026 | 12.4 | 12.4 | 100% | 75.97 | 0.0 | |||||||
| 09 | 02:15 | Calm | 6.44 | Fog/Mist | BKN027 | 12.1 | 12.1 | 100% | 76 | 0.0 | |||||||
| 09 | 01:55 | Calm | 4.02 | Fog/Mist | CLR | 12 | 12 | 100% | 76.02 | 0.0 | |||||||
| 09 | 01:35 | Calm | 8.05 | Fog/Mist | CLR | 12.3 | 12.3 | 100% | 76.02 | 0.0 | |||||||
| 09 | 01:15 | SW 6 | 4.83 | Fog/Mist | CLR | 12.3 | 12.3 | 100% | 76.02 | 0.0 | |||||||
| 09 | 00:55 | Calm | 3.22 | Fog/Mist | CLR | 13 | 13 | 100% | 76.02 | 0.0 | |||||||
| 09 | 00:35 | Calm | 16.09 | Fair | CLR | 14.3 | 13.3 | 94% | 76.02 | 0.0 | |||||||
| 09 | 00:15 | SE 7 | 16.09 | Fair | CLR | 14.5 | 13.5 | 94% | 76.02 | 0.0 | |||||||
| 08 | 23:55 | SE 7 | 16.09 | Fair | CLR | 14.9 | 13.8 | 93% | 76.05 | 0.0 | |||||||
| 08 | 23:35 | SE 6 | 14.48 | Fair | CLR | 15 | 14 | 94% | 76.07 | 0.0 | |||||||
| 08 | 23:15 | Calm | 16.09 | Fair | CLR | 15.4 | 14 | 91% | 76.07 | 0.0 | |||||||
| 08 | 22:55 | S 6 | 12.87 | Fair | CLR | 15.2 | 14.1 | 93% | 76.1 | 0.0 | |||||||
| 08 | 22:35 | Calm | 9.66 | Fog/Mist | CLR | 15 | 14.1 | 94% | 76.1 | 0.0 | |||||||
| 08 | 22:15 | S 7 | 12.87 | Fair | CLR | 15.6 | 14.1 | 91% | 76.07 | 0.0 | |||||||
| 08 | 21:55 | S 6 | 11.27 | Fair | CLR | 15.8 | 14.2 | 90% | 76.05 | 0.0 | |||||||
| 08 | 21:35 | S 6 | 4.02 | Fog/Mist | CLR | 15.8 | 14.2 | 90% | 76.05 | 0.0 | |||||||
| 08 | 21:15 | Calm | 2.41 | Fog/Mist | CLR | 15.7 | 14 | 90% | 76.05 | 0.0 | |||||||
| 08 | 20:55 | Calm | 1.61 | Fog/Mist | FEW260 | 16.3 | 14.2 | 87% | 76.05 | 0.0 | |||||||
| 08 | 20:35 | Calm | 1.21 | Partly Cloudy with Haze | FEW260 SCT280 | 16.7 | 14.3 | 86% | 76.05 | 0.0 | 0.03 | ||||||
| 08 | 20:15 | Calm | 1.21 | A Few Clouds with Haze | FEW270 | 17.7 | 13.8 | 78% | 76.07 | 0.0 | 0.03 | ||||||
| 08 | 19:55 | Calm | 2.01 | A Few Clouds with Haze | FEW280 | 18.5 | 12.4 | 68% | 76.05 | 0.0 | |||||||
| 08 | 19:35 | Calm | 16.09 | A Few Clouds | FEW280 | 18.9 | 12 | 64% | 76.05 | 0.0 | |||||||
| 08 | 19:15 | Calm | 16.09 | A Few Clouds | FEW290 | 19.5 | 12.1 | 62% | 76.05 | 0.0 | |||||||
| 08 | 18:55 | Calm | 16.09 | A Few Clouds | FEW240 | 19.7 | 11 | 57% | 76.05 | 0.0 | |||||||
| 08 | 18:35 | Calm | 16.09 | Partly Cloudy | FEW230 SCT290 | 20.2 | 10.6 | 54% | 76.07 | 0.0 | |||||||
| 08 | 18:15 | SW 6 | 16.09 | Partly Cloudy | SCT230 | 20.7 | 9.3 | 48% | 76.07 | 0.0 | |||||||
| 08 | 17:55 | Calm | 16.09 | A Few Clouds | FEW370 | 21.3 | 9.5 | 47% | 76.05 | 0.0 | |||||||
| 08 | 17:35 | Calm | 16.09 | A Few Clouds | FEW280 | 21.1 | 9.1 | 46% | 76.05 | 0.0 | |||||||
| 08 | 17:15 | Calm | 16.09 | A Few Clouds | FEW280 | 21.1 | 7.8 | 42% | 76.05 | 0.0 | |||||||
| 08 | 16:55 | SW 7 | 16.09 | Partly Cloudy | FEW230 SCT250 | 21.4 | 6.9 | 39% | 76.05 | 0.0 | |||||||
| 08 | 16:35 | Vrbl 6 | 16.09 | Mostly Cloudy | SCT250 SCT270 BKN360 | 21.5 | 5.9 | 36% | 76.07 | 0.0 | |||||||
| 08 | 16:15 | SE 6 | 16.09 | Partly Cloudy | FEW260 SCT360 | 22.1 | 5.5 | 34% | 76.07 | 0.0 | |||||||
| 08 | 15:55 | S 7 | 16.09 | Partly Cloudy | FEW270 SCT360 | 21.7 | 4.8 | 33% | 76.07 | 0.0 | |||||||
| 08 | 15:35 | S 7 | 16.09 | Partly Cloudy | FEW270 SCT350 | 22.1 | 4.8 | 32% | 76.12 | 0.0 | |||||||
| 08 | 15:15 | W 6 | 16.09 | Partly Cloudy | FEW280 SCT330 | 21.5 | 4.2 | 32% | 76.15 | 0.0 | |||||||
| 08 | 14:55 | S 7 | 16.09 | Partly Cloudy | FEW270 SCT340 | 21.4 | 4.2 | 33% | 76.15 | 0.0 | |||||||
| 08 | 14:35 | Calm | 16.09 | A Few Clouds | FEW290 | 21.5 | 2.8 | 29% | 76.2 | 0.0 | |||||||
| 08 | 14:15 | Calm | 16.09 | Partly Cloudy | FEW240 SCT370 | 21 | 2.8 | 30% | 76.2 | 0.0 | |||||||
| 08 | 13:55 | Calm | 16.09 | Partly Cloudy | FEW240 SCT370 | 20.7 | 4.2 | 34% | 76.23 | 0.0 | |||||||
| 08 | 13:35 | Calm | 16.09 | A Few Clouds | FEW230 | 20.5 | 5 | 36% | 76.25 | 0.0 | |||||||
| 08 | 13:15 | SE 11 | 16.09 | Fair | CLR | 20.6 | 2.2 | 30% | 76.28 | 0.0 | |||||||
| 08 | 12:55 | Vrbl 6 | 16.09 | A Few Clouds | FEW350 | 20.2 | 6.8 | 42% | 76.28 | 0.0 | |||||||
| 08 | 12:35 | SE 9 | 16.09 | Fair | CLR | 19.6 | 5.4 | 40% | 76.33 | 0.0 | |||||||
| 08 | 12:15 | Vrbl 6 | 16.09 | Fair | CLR | 19.8 | 6.5 | 42% | 76.35 | 0.0 | |||||||
| 08 | 11:55 | Vrbl 6 | 16.09 | Fair | CLR | 18.7 | 7.1 | 47% | 76.35 | 0.0 | |||||||
| 08 | 11:35 | Calm | 16.09 | Fair | CLR | 18 | 6.3 | 47% | 76.38 | 0.0 | |||||||
| 08 | 11:15 | Vrbl 6 | 16.09 | Fair | CLR | 17.4 | 8.2 | 55% | 76.4 | 0.0 | |||||||
| 08 | 10:55 | Calm | 16.09 | Fair | CLR | 17.2 | 9.7 | 62% | 76.4 | 0.0 | |||||||
| 08 | 10:35 | Calm | 16.09 | Fair | CLR | 16.5 | 9.7 | 64% | 76.4 | 0.0 | |||||||
| 08 | 10:15 | Calm | 16.09 | Fair | CLR | 15.3 | 9.9 | 70% | 76.4 | 0.0 | |||||||
| 08 | 09:55 | SW 7 | 16.09 | Fair | CLR | 14.5 | 10.3 | 76% | 76.43 | 0.0 | |||||||
| 08 | 09:35 | Calm | 16.09 | Fair | CLR | 13.5 | 10.7 | 83% | 76.4 | 0.0 | 0.03 | ||||||
| 08 | 09:15 | Calm | 16.09 | Fair | CLR | 12.7 | 10.5 | 87% | 76.43 | 0.0 | 0.03 | ||||||
| 08 | 08:55 | Calm | 16.09 | Fair | CLR | 12 | 10.8 | 92% | 76.43 | 0.0 | 0.03 | ||||||
| 08 | 08:35 | Calm | 16.09 | A Few Clouds | FEW360 | 11 | 10 | 94% | 76.43 | 0.0 | |||||||
| 08 | 08:15 | Calm | 16.09 | Fair | CLR | 10.2 | 9.8 | 97% | 76.43 | 0.0 | |||||||
| 08 | 07:55 | Calm | 16.09 | A Few Clouds | FEW380 | 9.5 | 9.5 | 100% | 76.4 | 0.0 | |||||||
| 08 | 07:35 | Calm | 16.09 | A Few Clouds | FEW310 | 8.9 | 8.9 | 100% | 76.35 | 0.0 | 0.03 | ||||||
| 08 | 07:15 | Calm | 16.09 | A Few Clouds | FEW310 | 8.3 | 8.3 | 100% | 76.33 | 0.0 | |||||||
| 08 | 06:55 | Calm | 14.48 | A Few Clouds | FEW310 | 7.9 | 7.9 | 100% | 76.3 | 0.0 | |||||||
| 08 | 06:35 | Calm | 11.27 | Fair | CLR | 8.3 | 8.3 | 100% | 76.28 | 0.0 | |||||||
| 08 | 06:15 | Calm | 14.48 | Fair | CLR | 8.8 | 8.8 | 100% | 76.25 | 0.0 | |||||||
| 08 | 05:55 | Calm | 16.09 | Fair | CLR | 9.2 | 9.2 | 100% | 76.23 | 0.0 | |||||||
| 08 | 05:35 | Calm | 12.87 | Fair | CLR | 9.1 | 9.1 | 100% | 76.23 | 0.0 | 0.03 | ||||||
| 08 | 05:15 | Calm | 14.48 | Fair | CLR | 9.3 | 9.3 | 100% | 76.23 | 0.0 | 0.03 | ||||||
| 08 | 04:55 | Calm | 16.09 | Fair | CLR | 9.4 | 9.4 | 100% | 76.2 | 0.0 | |||||||
| 08 | 04:35 | Calm | 14.48 | Fair | CLR | 9.4 | 9.4 | 100% | 76.2 | 0.0 | 0.03 | ||||||
| 08 | 04:15 | Calm | 16.09 | Fair | CLR | 9.4 | 9.4 | 100% | 76.2 | 0.0 | 0.03 | ||||||
| 08 | 03:55 | N 7 | 16.09 | Fair | CLR | 9.6 | 9.6 | 100% | 9 | 76.2 | 0.0 | 0.03 | |||||
| 08 | 03:35 | N 6 | 16.09 | Fair | CLR | 9.9 | 9.9 | 100% | 76.2 | 0.0 | |||||||
| 08 | 03:15 | N 9 | 16.09 | Fair | CLR | 9.9 | 9.9 | 100% | 9 | 76.2 | 0.0 | ||||||
| 08 | 02:55 | Vrbl 6 | 16.09 | Fair | CLR | 10.3 | 10.3 | 100% | 76.23 | 0.0 | |||||||
| 08 | 02:35 | N 6 | 16.09 | Fair | CLR | 10.7 | 10.7 | 100% | 76.23 | 0.0 | 0.03 | ||||||
| 08 | 02:15 | NW 6 | 16.09 | Fair | CLR | 11.1 | 11 | 99% | 76.25 | 0.0 | 0.03 | ||||||
| 08 | 01:55 | N 7 | 16.09 | Fair | CLR | 10.8 | 10.8 | 100% | 76.25 | 0.0 | |||||||
| 08 | 01:35 | Calm | 16.09 | Fair | CLR | 11 | 11 | 100% | 76.25 | 0.0 | 0.03 | ||||||
| 08 | 01:15 | Calm | 16.09 | Fair | CLR | 11.3 | 11.3 | 100% | 76.23 | 0.0 | 0.03 | ||||||
| 08 | 00:55 | Calm | 16.09 | Fair | CLR | 11.6 | 11.6 | 100% | 76.25 | 0.0 | |||||||
| 08 | 00:35 | Calm | 16.09 | Fair | CLR | 11.9 | 11.9 | 100% | 76.23 | 0.0 | |||||||
| 08 | 00:15 | NW 6 | 16.09 | Fair | CLR | 12.2 | 12.2 | 100% | 76.23 | 0.0 | |||||||
| 07 | 23:55 | Calm | 14.48 | Fair | CLR | 12.1 | 12.1 | 100% | 76.2 | 0.0 | |||||||
| 07 | 23:35 | Calm | 14.48 | Fair | CLR | 12.9 | 12.9 | 100% | 76.2 | 0.0 | 0.03 | ||||||
| 07 | 23:15 | Calm | 14.48 | Light Rain | CLR | 13.1 | 13.1 | 100% | 76.2 | 0.0 | 0.03 | ||||||
| 07 | 22:55 | Calm | 14.48 | Fair | CLR | 13.3 | 13.3 | 100% | 76.2 | 0.0 | |||||||
| 07 | 22:35 | Calm | 14.48 | Fair | CLR | 13.4 | 13.4 | 100% | 76.2 | 0.0 | 0.03 | ||||||
| 07 | 22:15 | Calm | 16.09 | Fair | CLR | 13.8 | 13.8 | 100% | 76.17 | 0.0 | 0.03 | ||||||
| 07 | 21:55 | Calm | 14.48 | Fair | CLR | 14.2 | 14.2 | 100% | 76.15 | 0.0 | |||||||
| 07 | 21:35 | Calm | 14.48 | Fair | CLR | 14.8 | 14.4 | 97% | 76.12 | 0.0 | 0.03 | ||||||
| 07 | 21:15 | Calm | 16.09 | Fair | CLR | 14.8 | 14.3 | 97% | 76.12 | 0.0 | |||||||
| 07 | 20:55 | Calm | 12.87 | Fair | CLR | 15.8 | 14.2 | 90% | 76.1 | 0.0 | |||||||
| 07 | 20:35 | Calm | 14.48 | Partly Cloudy | SCT050 | 16.8 | 14 | 84% | 76.07 | 0.0 | 0.05 | ||||||
| 07 | 20:15 | Calm | 12.87 | Overcast | OVC050 | 17.2 | 14.6 | 85% | 76.07 | 0.0 | 0.03 | ||||||
| 07 | 19:55 | Calm | 14.48 | Mostly Cloudy | BKN049 | 18.2 | 14.1 | 77% | 76.07 | 0.0 | |||||||
| 07 | 19:35 | Calm | 16.09 | A Few Clouds | FEW048 | 18.4 | 13.5 | 73% | 76.05 | 0.0 | 0.05 | ||||||
| 07 | 19:15 | NW 6 | 16.09 | A Few Clouds | FEW050 | 18.9 | 12.8 | 68% | 76.05 | 0.0 | 0.03 | ||||||
| 07 | 18:55 | NW 9 | 16.09 | Fair | CLR | 19 | 12.6 | 67% | 76.05 | 0.0 | |||||||
| 07 | 18:35 | NW 13 | 16.09 | Partly Cloudy | FEW038 SCT049 SCT060 | 19.4 | 12.7 | 65% | 76.05 | 0.0 | 0.05 | ||||||
| 07 | 18:15 | Vrbl 7 | 16.09 | Mostly Cloudy | FEW037 BKN049 BKN060 | 19.2 | 13.5 | 70% | 76.05 | 0.0 | 0.03 | ||||||
| 07 | 17:55 | NW 9 | 16.09 | Mostly Cloudy | FEW044 BKN055 | 19.1 | 12.9 | 67% | 76.05 | 0.0 | |||||||
| 07 | 17:35 | NW 19 | 16.09 | Overcast | BKN045 OVC055 | 19.2 | 12.7 | 66% | 76.05 | 0.0 | 0.05 | ||||||
| 07 | 17:15 | N 11 | 16.09 | Mostly Cloudy | BKN046 | 19 | 13.1 | 69% | 76.02 | 0.0 | 0.03 | ||||||
| 07 | 16:15 | N 20 | 16.09 | Partly Cloudy | SCT042 | 20.1 | 12.9 | 63% | 76 | 0.0 | 0.03 | ||||||
| 07 | 15:55 | NW 17 | 16.09 | Mostly Cloudy | BKN036 | 20.1 | 14.6 | 71% | 76 | 0.0 | |||||||
| 07 | 15:35 | NW 15 | 16.09 | Overcast | OVC036 | 19.3 | 13.6 | 70% | 76.02 | 0.0 | 0.08 | ||||||
| 07 | 15:15 | N 19 | 16.09 | Overcast | BKN029 OVC037 | 18.9 | 14 | 73% | 76.05 | 0.0 | 0.05 | ||||||
| 07 | 14:55 | Vrbl 11 | 16.09 | Overcast | OVC026 | 19.3 | 14.4 | 73% | 76.05 | 0.0 | 0.03 | ||||||
| 07 | 14:35 | N 13 | 16.09 | Mostly Cloudy | BKN023 | 18.8 | 14.3 | 75% | 76.05 | 0.0 | 0.05 | ||||||
| 07 | 14:15 | NW 15 | 16.09 | Mostly Cloudy | SCT022 BKN047 | 18.3 | 14.5 | 79% | 76.05 | 0.0 | 0.03 | ||||||
| 07 | 13:55 | N 17 | 16.09 | Overcast | BKN020 OVC047 | 18.1 | 14.8 | 81% | 76.07 | 0.0 | |||||||
| 07 | 13:35 | N 13 | 16.09 | Overcast | OVC019 | 17.6 | 14.7 | 83% | 76.07 | 0.0 | 0.08 | ||||||
| 07 | 13:15 | N 15 | 16.09 | Mostly Cloudy | BKN017 BKN040 BKN050 | 17.1 | 14.7 | 86% | 76.07 | 0.0 | 0.05 | ||||||
| 07 | 12:55 | N 15 | 16.09 | Overcast | BKN015 BKN039 OVC050 | 16.4 | 14.2 | 87% | 76.07 | 0.0 | 0.03 | ||||||
| 07 | 12:35 | N 13 | 16.09 | Overcast | BKN016 OVC023 | 15.5 | 14.7 | 95% | 76.1 | 0.0 | 0.08 | ||||||
| 07 | 12:15 | NW 20 G 31 | 16.09 | Overcast | BKN012 OVC018 | 15.1 | 14.7 | 97% | 76.1 | 0.0 | 0.05 | ||||||
| 07 | 11:55 | NW 17 | 14.48 | Overcast | OVC010 | 15.1 | 15.1 | 100% | 76.07 | 0.0 | 0.03 | ||||||
| 07 | 11:35 | N 17 | 14.48 | Overcast | OVC009 | 15.1 | 15.1 | 100% | 76.02 | 0.0 | 0.05 | ||||||
| 07 | 11:15 | N 17 | 16.09 | Overcast | OVC008 | 15 | 15 | 100% | 76.02 | 0.0 | 0.03 | ||||||
| 07 | 10:35 | N 13 | 12.87 | Overcast | OVC008 | 14.8 | 14.8 | 100% | 76.02 | 0.0 | 0.08 | ||||||
| 07 | 10:15 | NW 13 | 14.48 | Overcast | BKN008 OVC014 | 14.9 | 14.9 | 100% | 76.02 | 0.0 | 0.05 | ||||||
| 07 | 09:55 | N 15 | 14.48 | Overcast | BKN010 OVC015 | 14.9 | 14.9 | 100% | 76.02 | 0.0 | 0.03 | ||||||
| 07 | 09:35 | N 15 | 14.48 | Overcast | OVC009 | 14.9 | 14.9 | 100% | 76.02 | 0.0 | 0.05 | ||||||
| 07 | 09:15 | N 13 | 14.48 | Overcast | OVC009 | 15 | 15 | 100% | 76 | 0.0 | 0.03 | ||||||
| 07 | 08:55 | N 19 | 14.48 | Overcast | BKN008 OVC018 | 15.2 | 15.2 | 100% | 75.95 | 0.0 | |||||||
| 07 | 08:35 | N 19 | 14.48 | Overcast | SCT007 OVC017 | 15.1 | 15.1 | 100% | 75.92 | 0.0 | 0.08 | ||||||
| 07 | 08:15 | Vrbl 11 | 9.66 | Light Rain Fog/Mist | BKN007 OVC016 | 15 | 15 | 100% | 75.95 | 0.0 | 0.05 | ||||||
| 07 | 07:55 | N 17 | 6.44 | Rain Fog/Mist | BKN006 BKN011 OVC017 | 15.4 | 15.4 | 100% | 75.95 | 0.0 | 0.03 | ||||||
| 07 | 07:35 | N 13 | 8.05 | Light Rain Fog/Mist | OVC004 | 15.9 | 15.9 | 100% | 75.95 | 0.0 | 0.08 | ||||||
| 07 | 07:15 | N 9 | 4.02 | Rain Fog/Mist | BKN004 OVC011 | 16.3 | 16.3 | 100% | 75.9 | 0.0 | 0.03 | ||||||
| 07 | 06:55 | N 15 | 6.44 | Light Rain Fog/Mist | SCT003 OVC009 | 16.6 | 16.6 | 100% | 75.9 | 0.0 | |||||||
| 07 | 06:35 | Vrbl 9 | 6.44 | Light Rain Fog/Mist | BKN004 OVC008 | 16.8 | 16.8 | 100% | 75.82 | 0.0 | 0.08 | ||||||
| 07 | 06:15 | N 7 | 9.66 | Light Rain Fog/Mist | OVC004 | 16.9 | 16.9 | 100% | 75.87 | 0.0 | 0.05 | ||||||
| 07 | 05:55 | Calm | 6.44 | Light Rain Fog/Mist | BKN004 BKN009 BKN013 OVC085 | 16.9 | 16.9 | 100% | 75.84 | 0.0 | 0.03 | ||||||
| 07 | 05:35 | NW 15 | 4.83 | Light Rain Fog/Mist | BKN003 OVC008 | 17.1 | 17.1 | 100% | 76 | 0.0 | 0.08 | ||||||
| 07 | 05:15 | NE 7 | 11.27 | Overcast | BKN003 OVC007 | 17.2 | 17.2 | 100% | 75.84 | 0.0 | 0.05 | ||||||
| 07 | 04:55 | NW 13 | 11.27 | Light Rain | OVC004 | 17.3 | 17.3 | 100% | 75.9 | 0.0 | 0.03 | ||||||
| 07 | 04:35 | NE 6 | 8.05 | Light Rain Fog/Mist | OVC006 | 17.3 | 17.3 | 100% | 75.82 | 0.0 | 0.05 | ||||||
| 07 | 04:15 | Calm | 9.66 | Light Rain Fog/Mist | BKN008 OVC014 | 17.3 | 17.3 | 100% | 75.87 | 0.0 | 0.03 | ||||||
| 07 | 03:55 | W 6 | 11.27 | Light Rain | BKN011 OVC075 | 17.2 | 17.2 | 100% | 75.9 | 0.0 | |||||||
| 07 | 03:35 | Calm | 14.48 | Overcast | SCT007 OVC080 | 17.3 | 17.3 | 100% | 75.84 | 0.0 | 0.08 | ||||||
| 07 | 03:15 | Calm | 14.48 | Overcast | BKN005 BKN065 OVC095 | 17.3 | 17.3 | 100% | 75.87 | 0.0 | 0.05 | ||||||
| 07 | 02:55 | Calm | 4.83 | Light Rain Fog/Mist | BKN003 OVC008 | 17.2 | 17.2 | 100% | 75.87 | 0.0 | 0.03 | ||||||
| 07 | 02:35 | Calm | 12.87 | Overcast | BKN004 BKN009 OVC095 | 17.2 | 17.2 | 100% | 75.92 | 0.0 | 0.1 | ||||||
| 07 | 02:15 | Calm | 6.44 | Light Rain Fog/Mist Thunderstorm in Vicinity | FEW002 BKN075 BKN095 OVC120 | 17.2 | 17.2 | 100% | 75.95 | 0.0 | 0.05 | ||||||
| 07 | 01:55 | S 6 | 6.44 | Light Rain Fog/Mist | FEW002 BKN060 OVC080 | 17.3 | 17.3 | 100% | 75.95 | 0.0 | |||||||
| 07 | 01:35 | SE 11 | 1.61 | Light Rain Fog/Mist Thunderstorm in Vicinity | SCT002 BKN041 OVC085 | 17.5 | 17.5 | 100% | 75.92 | 0.0 | 0.1 | ||||||
| 07 | 01:15 | Calm | 6.44 | Light Rain Fog/Mist | SCT002 BKN060 OVC090 | 17.5 | 17.5 | 100% | 76 | 0.0 | 0.05 | ||||||
| 07 | 00:55 | Calm | 4.83 | Thunderstorm Light Rain Fog/Mist | FEW003 BKN055 OVC070 | 17.7 | 17.7 | 100% | 75.97 | 0.0 | 0.03 | ||||||
| 07 | 00:35 | Calm | 8.05 | Light Rain Fog/Mist | SCT002 OVC055 | 17.6 | 17.6 | 100% | 75.97 | 0.0 | 0.1 | ||||||
| 07 | 00:15 | E 6 | 8.05 | Light Rain Fog/Mist | SCT003 SCT017 BKN042 OVC060 | 17.5 | 17.5 | 100% | 76 | 0.0 | 0.05 | ||||||
| 06 | 23:55 | N 6 | 11.27 | Overcast | FEW004 SCT017 SCT042 OVC060 | 17.6 | 17.6 | 100% | 76.02 | 0.0 | |||||||
| 06 | 23:35 | N 6 | 12.87 | Light Rain | OVC060 | 17.6 | 17.6 | 100% | 76 | 0.0 | 0.13 | ||||||
| 06 | 23:15 | Calm | 12.87 | Overcast | OVC055 | 17.6 | 17.6 | 100% | 76.02 | 0.0 | 0.08 | ||||||
| 06 | 22:55 | Calm | 14.48 | Overcast | BKN055 BKN070 OVC100 | 17.6 | 17.6 | 100% | 75.97 | 0.0 | 0.03 | ||||||
| 06 | 22:35 | Calm | 14.48 | Overcast | BKN060 OVC080 | 17.6 | 17.6 | 100% | 76 | 0.0 | 0.15 | ||||||
| 06 | 22:15 | Calm | 12.87 | Overcast | FEW046 BKN055 OVC080 | 17.6 | 17.6 | 100% | 76 | 0.0 | 0.08 | ||||||
| 06 | 21:55 | Calm | 6.44 | Light Rain Fog/Mist | OVC055 | 17.7 | 17.7 | 100% | 76.02 | 0.0 | 0.03 | ||||||
| 06 | 21:35 | Calm | 14.48 | Overcast | OVC050 | 17.8 | 17.8 | 100% | 75.97 | 0.0 | 0.18 | ||||||
| 06 | 21:15 | SE 6 | 12.87 | Light Rain | FEW047 OVC060 | 17.9 | 17.9 | 100% | 75.97 | 0.0 | 0.1 | ||||||
| 06 | 20:55 | Calm | 12.87 | Light Rain | FEW048 OVC060 | 17.8 | 17.8 | 100% | 76 | 0.0 | |||||||
| 06 | 20:35 | Calm | 4.83 | Light Rain Fog/Mist | FEW002 SCT039 OVC055 | 17.9 | 17.9 | 100% | 76.02 | 0.0 | 0.2 | ||||||
| 06 | 20:15 | N 7 | 6.44 | Light Rain Fog/Mist | FEW006 OVC038 | 17.9 | 17.9 | 100% | 76.07 | 0.0 | 0.13 | ||||||
| 06 | 19:55 | Calm | 8.05 | Light Rain Fog/Mist | OVC038 | 17.8 | 17.8 | 100% | 76.05 | 0.0 | 0.03 | ||||||
| 06 | 19:35 | E 6 | 11.27 | Thunderstorm in Vicinity | FEW002 SCT029 BKN041 OVC055 | 17.9 | 17.9 | 100% | 76.02 | 0.0 | 0.23 | ||||||
| 06 | 19:15 | NE 7 | 1.21 | Heavy Rain Fog/Mist Thunderstorm in Vicinity | SCT003 SCT027 OVC036 | 17.9 | 17.9 | 100% | 75.97 | 0.0 | 0.13 | ||||||
| 06 | 18:55 | NW 9 | 0.80 | Thunderstorm Heavy Rain Fog | FEW003 SCT018 OVC034 | 18.3 | 18.3 | 100% | 76.02 | 0.0 | 0.03 | ||||||
| 06 | 18:35 | E 9 | 8.05 | Light Rain Fog/Mist | OVC034 | 18.6 | 18.6 | 100% | 75.87 | 0.0 | 0.2 | ||||||
| 06 | 18:15 | Calm | 8.05 | Light Rain Fog/Mist | OVC036 | 18.7 | 18.7 | 100% | 75.97 | 0.0 | 0.13 | ||||||
| 06 | 17:55 | S 7 | 2.41 | Rain Fog/Mist | BKN038 OVC055 | 18.8 | 18.8 | 100% | 75.97 | 0.0 | 0.03 | ||||||
| 06 | 17:35 | E 9 | 3.22 | Light Rain Fog/Mist Thunderstorm in Vicinity | FEW003 BKN040 OVC060 | 18.7 | 18.7 | 100% | 75.92 | 0.0 | 0.23 | ||||||
| 06 | 17:15 | Calm | 4.02 | Light Rain Fog/Mist | FEW003 OVC040 | 18.8 | 18.8 | 100% | 75.95 | 0.0 | 0.13 | ||||||
| 06 | 16:55 | Calm | 3.22 | Light Rain Fog/Mist | FEW002 OVC041 | 18.8 | 18.8 | 100% | 76 | 0.0 | 0.03 | ||||||
| 06 | 16:35 | Calm | 8.05 | Light Rain Fog/Mist | FEW002 BKN040 OVC060 | 19.1 | 19.1 | 100% | 76.02 | 0.0 | 0.28 | ||||||
| 06 | 16:15 | Calm | 4.02 | Light Rain Fog/Mist | FEW002 SCT025 BKN041 OVC060 | 18.8 | 18.8 | 100% | 76 | 0.0 | 0.18 | ||||||
| 06 | 15:55 | NW 19 G 43 | 2.41 | Heavy Rain Fog/Mist | FEW017 SCT025 BKN036 OVC060 | 19.5 | 19 | 97% | 76.02 | 0.0 | 0.05 | ||||||
| 06 | 15:35 | Vrbl 7 | 14.48 | Thunderstorm in Vicinity | SCT037 OVC060 | 22.4 | 21.7 | 96% | 75.97 | 0.0 | |||||||
| Date | Time (edt) | Wind (kph) | Vis. (km) | Weather | Sky Cond. | Air | Dwpt | Max. | Min. | Relative Humidity | Wind Chill (°C) | Heat Index (°C) | altimeter (cm) | sea level (mb) | 1 hr | 3 hr | 6 hr |
| 6 hour | |||||||||||||||||
| Temperature (ºC) | Pressure | Precipitation (cm) | |||||||||||||||